sensor_id;sensor_type;location;lat;lon;timestamp;temperature;humidity
28297;DHT22;62078;49.366;8.172;2023-04-03T00:02:19;17.40;55.10
28297;DHT22;62078;49.366;8.172;2023-04-03T00:04:45;17.30;55.00
28297;DHT22;62078;49.366;8.172;2023-04-03T00:07:11;17.30;55.00
28297;DHT22;62078;49.366;8.172;2023-04-03T00:09:38;17.30;55.00
28297;DHT22;62078;49.366;8.172;2023-04-03T00:12:03;17.30;55.10
28297;DHT22;62078;49.366;8.172;2023-04-03T00:14:29;17.30;55.10
28297;DHT22;62078;49.366;8.172;2023-04-03T00:16:55;17.30;55.20
28297;DHT22;62078;49.366;8.172;2023-04-03T00:19:21;17.30;55.30
28297;DHT22;62078;49.366;8.172;2023-04-03T00:21:47;17.30;55.20
28297;DHT22;62078;49.366;8.172;2023-04-03T00:24:13;17.30;55.30
28297;DHT22;62078;49.366;8.172;2023-04-03T00:26:38;17.30;55.30
28297;DHT22;62078;49.366;8.172;2023-04-03T00:29:04;17.30;55.30
28297;DHT22;62078;49.366;8.172;2023-04-03T00:31:30;17.30;55.40
28297;DHT22;62078;49.366;8.172;2023-04-03T00:33:56;17.20;55.30
28297;DHT22;62078;49.366;8.172;2023-04-03T00:36:22;17.30;55.40
28297;DHT22;62078;49.366;8.172;2023-04-03T00:38:48;17.20;55.40
28297;DHT22;62078;49.366;8.172;2023-04-03T00:41:14;17.20;55.40
28297;DHT22;62078;49.366;8.172;2023-04-03T00:43:39;17.20;55.40
28297;DHT22;62078;49.366;8.172;2023-04-03T00:46:05;17.20;55.40
28297;DHT22;62078;49.366;8.172;2023-04-03T00:48:35;17.20;55.40
28297;DHT22;62078;49.366;8.172;2023-04-03T00:51:04;17.20;55.40
28297;DHT22;62078;49.366;8.172;2023-04-03T00:53:56;17.20;55.50
28297;DHT22;62078;49.366;8.172;2023-04-03T00:56:24;17.20;55.50
28297;DHT22;62078;49.366;8.172;2023-04-03T01:01:25;17.20;55.50
28297;DHT22;62078;49.366;8.172;2023-04-03T01:03:51;17.20;55.50
28297;DHT22;62078;49.366;8.172;2023-04-03T01:06:21;17.20;55.50
28297;DHT22;62078;49.366;8.172;2023-04-03T01:08:49;17.20;55.50
28297;DHT22;62078;49.366;8.172;2023-04-03T01:11:15;17.20;55.50
28297;DHT22;62078;49.366;8.172;2023-04-03T01:13:41;17.10;55.50
28297;DHT22;62078;49.366;8.172;2023-04-03T01:16:08;17.20;55.50
28297;DHT22;62078;49.366;8.172;2023-04-03T01:18:37;17.20;55.40
28297;DHT22;62078;49.366;8.172;2023-04-03T01:21:36;17.20;55.40
28297;DHT22;62078;49.366;8.172;2023-04-03T01:24:35;17.20;55.40
28297;DHT22;62078;49.366;8.172;2023-04-03T01:27:04;17.20;55.40
28297;DHT22;62078;49.366;8.172;2023-04-03T01:29:30;17.20;55.40
28297;DHT22;62078;49.366;8.172;2023-04-03T01:31:58;17.20;55.40
28297;DHT22;62078;49.366;8.172;2023-04-03T01:34:24;17.20;55.40
28297;DHT22;62078;49.366;8.172;2023-04-03T01:36:50;17.20;55.30
28297;DHT22;62078;49.366;8.172;2023-04-03T01:39:17;17.20;55.30
28297;DHT22;62078;49.366;8.172;2023-04-03T01:41:43;17.20;55.20
28297;DHT22;62078;49.366;8.172;2023-04-03T01:44:09;17.20;55.20
28297;DHT22;62078;49.366;8.172;2023-04-03T01:46:35;17.20;55.20
28297;DHT22;62078;49.366;8.172;2023-04-03T01:49:03;17.30;55.80
28297;DHT22;62078;49.366;8.172;2023-04-03T01:51:29;17.20;55.20
28297;DHT22;62078;49.366;8.172;2023-04-03T01:53:55;17.30;55.20
28297;DHT22;62078;49.366;8.172;2023-04-03T01:56:21;17.30;55.20
28297;DHT22;62078;49.366;8.172;2023-04-03T01:58:47;17.30;55.10
28297;DHT22;62078;49.366;8.172;2023-04-03T02:01:13;17.30;55.20
28297;DHT22;62078;49.366;8.172;2023-04-03T02:03:40;17.30;55.10
28297;DHT22;62078;49.366;8.172;2023-04-03T02:06:06;17.20;55.10
28297;DHT22;62078;49.366;8.172;2023-04-03T02:08:32;17.30;55.10
28297;DHT22;62078;49.366;8.172;2023-04-03T02:10:58;17.30;55.10
28297;DHT22;62078;49.366;8.172;2023-04-03T02:13:24;17.30;55.10
28297;DHT22;62078;49.366;8.172;2023-04-03T02:15:50;17.20;55.00
28297;DHT22;62078;49.366;8.172;2023-04-03T02:18:16;17.30;55.00
28297;DHT22;62078;49.366;8.172;2023-04-03T02:20:42;17.30;55.00
28297;DHT22;62078;49.366;8.172;2023-04-03T02:23:08;17.20;55.00
28297;DHT22;62078;49.366;8.172;2023-04-03T02:25:34;17.20;55.10
28297;DHT22;62078;49.366;8.172;2023-04-03T02:28:00;17.20;55.00
28297;DHT22;62078;49.366;8.172;2023-04-03T02:30:26;17.30;55.00
28297;DHT22;62078;49.366;8.172;2023-04-03T02:32:52;17.20;55.00
28297;DHT22;62078;49.366;8.172;2023-04-03T02:35:20;17.20;55.00
28297;DHT22;62078;49.366;8.172;2023-04-03T02:37:46;17.20;55.00
28297;DHT22;62078;49.366;8.172;2023-04-03T02:40:12;17.20;55.10
28297;DHT22;62078;49.366;8.172;2023-04-03T02:42:38;17.20;55.10
28297;DHT22;62078;49.366;8.172;2023-04-03T02:45:04;17.20;55.10
28297;DHT22;62078;49.366;8.172;2023-04-03T02:47:30;17.20;55.20
28297;DHT22;62078;49.366;8.172;2023-04-03T02:49:56;17.20;55.20
28297;DHT22;62078;49.366;8.172;2023-04-03T02:52:22;17.30;55.40
28297;DHT22;62078;49.366;8.172;2023-04-03T02:54:47;17.30;55.50
28297;DHT22;62078;49.366;8.172;2023-04-03T02:57:13;17.30;56.00
28297;DHT22;62078;49.366;8.172;2023-04-03T02:59:39;17.30;55.90
28297;DHT22;62078;49.366;8.172;2023-04-03T03:02:07;17.30;55.90
28297;DHT22;62078;49.366;8.172;2023-04-03T03:04:33;17.30;55.80
28297;DHT22;62078;49.366;8.172;2023-04-03T03:06:59;17.20;55.90
28297;DHT22;62078;49.366;8.172;2023-04-03T03:09:25;17.20;56.20
28297;DHT22;62078;49.366;8.172;2023-04-03T03:11:52;17.30;56.10
28297;DHT22;62078;49.366;8.172;2023-04-03T03:14:18;17.30;56.30
28297;DHT22;62078;49.366;8.172;2023-04-03T03:16:43;17.30;56.20
28297;DHT22;62078;49.366;8.172;2023-04-03T03:19:09;17.30;56.10
28297;DHT22;62078;49.366;8.172;2023-04-03T03:21:35;17.30;56.20
28297;DHT22;62078;49.366;8.172;2023-04-03T03:24:01;17.30;56.20
28297;DHT22;62078;49.366;8.172;2023-04-03T03:26:28;17.30;56.10
28297;DHT22;62078;49.366;8.172;2023-04-03T03:28:54;17.30;56.10
28297;DHT22;62078;49.366;8.172;2023-04-03T03:31:20;17.30;56.20
28297;DHT22;62078;49.366;8.172;2023-04-03T03:33:46;17.30;56.10
28297;DHT22;62078;49.366;8.172;2023-04-03T03:36:12;17.30;56.10
28297;DHT22;62078;49.366;8.172;2023-04-03T03:38:38;17.30;56.10
28297;DHT22;62078;49.366;8.172;2023-04-03T03:41:04;17.30;56.30
28297;DHT22;62078;49.366;8.172;2023-04-03T03:43:30;17.30;56.00
28297;DHT22;62078;49.366;8.172;2023-04-03T03:45:56;17.30;56.20
28297;DHT22;62078;49.366;8.172;2023-04-03T03:48:22;17.30;56.20
28297;DHT22;62078;49.366;8.172;2023-04-03T03:50:48;17.30;56.40
28297;DHT22;62078;49.366;8.172;2023-04-03T03:53:15;17.30;56.40
28297;DHT22;62078;49.366;8.172;2023-04-03T03:55:41;17.20;56.30
28297;DHT22;62078;49.366;8.172;2023-04-03T03:58:06;17.30;56.50
28297;DHT22;62078;49.366;8.172;2023-04-03T04:00:33;17.30;56.50
28297;DHT22;62078;49.366;8.172;2023-04-03T04:02:58;17.20;56.50
28297;DHT22;62078;49.366;8.172;2023-04-03T04:05:24;17.30;56.50
28297;DHT22;62078;49.366;8.172;2023-04-03T04:07:50;17.30;56.50
28297;DHT22;62078;49.366;8.172;2023-04-03T04:10:16;17.30;56.40
28297;DHT22;62078;49.366;8.172;2023-04-03T04:12:42;17.20;56.50
28297;DHT22;62078;49.366;8.172;2023-04-03T04:15:08;17.20;56.40
28297;DHT22;62078;49.366;8.172;2023-04-03T04:17:34;17.20;56.80
28297;DHT22;62078;49.366;8.172;2023-04-03T04:20:01;17.30;56.20
28297;DHT22;62078;49.366;8.172;2023-04-03T04:22:28;17.30;56.10
28297;DHT22;62078;49.366;8.172;2023-04-03T04:24:54;17.30;55.90
28297;DHT22;62078;49.366;8.172;2023-04-03T04:27:19;17.30;56.20
28297;DHT22;62078;49.366;8.172;2023-04-03T04:29:45;17.40;56.20
28297;DHT22;62078;49.366;8.172;2023-04-03T04:32:11;17.40;55.90
28297;DHT22;62078;49.366;8.172;2023-04-03T04:34:37;17.40;55.90
28297;DHT22;62078;49.366;8.172;2023-04-03T04:37:03;17.40;56.60
28297;DHT22;62078;49.366;8.172;2023-04-03T04:39:28;17.50;56.70
28297;DHT22;62078;49.366;8.172;2023-04-03T04:41:54;17.50;56.60
28297;DHT22;62078;49.366;8.172;2023-04-03T04:44:20;17.50;56.80
28297;DHT22;62078;49.366;8.172;2023-04-03T04:46:46;17.40;56.60
28297;DHT22;62078;49.366;8.172;2023-04-03T04:49:12;17.40;57.10
28297;DHT22;62078;49.366;8.172;2023-04-03T04:51:38;17.40;56.70
28297;DHT22;62078;49.366;8.172;2023-04-03T04:54:04;17.40;56.60
28297;DHT22;62078;49.366;8.172;2023-04-03T04:56:30;17.40;56.30
28297;DHT22;62078;49.366;8.172;2023-04-03T04:58:56;17.40;56.30
28297;DHT22;62078;49.366;8.172;2023-04-03T05:01:21;17.40;56.40
28297;DHT22;62078;49.366;8.172;2023-04-03T05:03:47;17.30;56.40
28297;DHT22;62078;49.366;8.172;2023-04-03T05:06:13;17.40;56.30
28297;DHT22;62078;49.366;8.172;2023-04-03T05:08:39;17.40;56.50
28297;DHT22;62078;49.366;8.172;2023-04-03T05:11:05;17.40;56.70
28297;DHT22;62078;49.366;8.172;2023-04-03T05:13:31;17.40;56.60
28297;DHT22;62078;49.366;8.172;2023-04-03T05:15:57;17.40;56.60
28297;DHT22;62078;49.366;8.172;2023-04-03T05:18:23;17.40;56.60
28297;DHT22;62078;49.366;8.172;2023-04-03T05:20:49;17.40;56.70
28297;DHT22;62078;49.366;8.172;2023-04-03T05:23:16;17.40;56.60
28297;DHT22;62078;49.366;8.172;2023-04-03T05:25:42;17.40;56.60
28297;DHT22;62078;49.366;8.172;2023-04-03T05:28:11;17.30;56.70
28297;DHT22;62078;49.366;8.172;2023-04-03T05:30:37;17.40;56.70
28297;DHT22;62078;49.366;8.172;2023-04-03T05:33:03;17.30;56.60
28297;DHT22;62078;49.366;8.172;2023-04-03T05:35:29;17.40;56.60
28297;DHT22;62078;49.366;8.172;2023-04-03T05:37:55;17.30;56.60
28297;DHT22;62078;49.366;8.172;2023-04-03T05:40:20;17.30;56.60
28297;DHT22;62078;49.366;8.172;2023-04-03T05:42:46;17.30;56.70
28297;DHT22;62078;49.366;8.172;2023-04-03T05:45:12;17.30;56.60
28297;DHT22;62078;49.366;8.172;2023-04-03T05:47:38;17.30;57.30
28297;DHT22;62078;49.366;8.172;2023-04-03T05:50:04;17.30;56.70
28297;DHT22;62078;49.366;8.172;2023-04-03T05:52:35;17.30;56.60
28297;DHT22;62078;49.366;8.172;2023-04-03T05:55:02;17.30;56.70
28297;DHT22;62078;49.366;8.172;2023-04-03T05:57:28;17.30;56.60
28297;DHT22;62078;49.366;8.172;2023-04-03T05:59:53;17.30;56.40
28297;DHT22;62078;49.366;8.172;2023-04-03T06:02:22;17.30;56.00
28297;DHT22;62078;49.366;8.172;2023-04-03T06:04:48;17.30;56.10
28297;DHT22;62078;49.366;8.172;2023-04-03T06:07:16;17.40;56.00
28297;DHT22;62078;49.366;8.172;2023-04-03T06:09:43;17.30;55.90
28297;DHT22;62078;49.366;8.172;2023-04-03T06:12:09;17.40;55.90
28297;DHT22;62078;49.366;8.172;2023-04-03T06:14:35;17.40;56.20
28297;DHT22;62078;49.366;8.172;2023-04-03T06:17:02;17.40;56.00
28297;DHT22;62078;49.366;8.172;2023-04-03T06:19:28;17.40;56.00
28297;DHT22;62078;49.366;8.172;2023-04-03T06:21:54;17.40;55.90
28297;DHT22;62078;49.366;8.172;2023-04-03T06:24:20;17.50;56.10
28297;DHT22;62078;49.366;8.172;2023-04-03T06:26:48;17.50;56.20
28297;DHT22;62078;49.366;8.172;2023-04-03T06:29:17;17.50;56.10
28297;DHT22;62078;49.366;8.172;2023-04-03T06:31:43;17.60;55.80
28297;DHT22;62078;49.366;8.172;2023-04-03T06:34:10;17.80;55.90
28297;DHT22;62078;49.366;8.172;2023-04-03T06:36:37;18.00;55.00
28297;DHT22;62078;49.366;8.172;2023-04-03T06:39:04;18.10;55.00
28297;DHT22;62078;49.366;8.172;2023-04-03T06:41:30;18.30;54.80
28297;DHT22;62078;49.366;8.172;2023-04-03T06:43:57;18.40;54.60
28297;DHT22;62078;49.366;8.172;2023-04-03T06:46:24;18.50;54.50
28297;DHT22;62078;49.366;8.172;2023-04-03T06:48:50;18.50;54.40
28297;DHT22;62078;49.366;8.172;2023-04-03T06:51:22;18.60;54.40
28297;DHT22;62078;49.366;8.172;2023-04-03T06:53:52;18.60;54.40
28297;DHT22;62078;49.366;8.172;2023-04-03T06:56:19;18.70;54.40
28297;DHT22;62078;49.366;8.172;2023-04-03T06:58:46;18.70;54.40
28297;DHT22;62078;49.366;8.172;2023-04-03T07:01:14;18.80;54.50
28297;DHT22;62078;49.366;8.172;2023-04-03T07:03:40;18.80;54.30
28297;DHT22;62078;49.366;8.172;2023-04-03T07:06:07;18.80;54.30
28297;DHT22;62078;49.366;8.172;2023-04-03T07:08:34;18.90;54.30
28297;DHT22;62078;49.366;8.172;2023-04-03T07:11:00;19.00;54.20
28297;DHT22;62078;49.366;8.172;2023-04-03T07:13:26;19.00;54.70
28297;DHT22;62078;49.366;8.172;2023-04-03T07:15:52;19.10;54.10
28297;DHT22;62078;49.366;8.172;2023-04-03T07:18:19;19.10;54.10
28297;DHT22;62078;49.366;8.172;2023-04-03T07:20:44;19.20;54.00
28297;DHT22;62078;49.366;8.172;2023-04-03T07:23:11;19.20;54.00
28297;DHT22;62078;49.366;8.172;2023-04-03T07:25:42;19.30;53.90
28297;DHT22;62078;49.366;8.172;2023-04-03T07:28:08;19.30;53.90
28297;DHT22;62078;49.366;8.172;2023-04-03T07:30:34;19.30;54.00
28297;DHT22;62078;49.366;8.172;2023-04-03T07:33:00;19.30;53.80
28297;DHT22;62078;49.366;8.172;2023-04-03T07:35:26;19.40;53.80
28297;DHT22;62078;49.366;8.172;2023-04-03T07:37:52;19.40;53.70
28297;DHT22;62078;49.366;8.172;2023-04-03T07:40:18;19.50;53.70
28297;DHT22;62078;49.366;8.172;2023-04-03T07:42:44;19.50;53.70
28297;DHT22;62078;49.366;8.172;2023-04-03T07:45:10;19.50;53.70
28297;DHT22;62078;49.366;8.172;2023-04-03T07:47:36;19.60;53.70
28297;DHT22;62078;49.366;8.172;2023-04-03T07:50:02;19.60;53.60
28297;DHT22;62078;49.366;8.172;2023-04-03T07:52:28;19.60;53.60
28297;DHT22;62078;49.366;8.172;2023-04-03T07:54:54;19.70;53.60
28297;DHT22;62078;49.366;8.172;2023-04-03T07:57:20;19.70;53.60
28297;DHT22;62078;49.366;8.172;2023-04-03T07:59:46;19.70;53.50
28297;DHT22;62078;49.366;8.172;2023-04-03T08:02:12;19.70;53.60
28297;DHT22;62078;49.366;8.172;2023-04-03T08:04:38;19.70;53.50
28297;DHT22;62078;49.366;8.172;2023-04-03T08:07:04;19.70;53.50
28297;DHT22;62078;49.366;8.172;2023-04-03T08:09:31;19.70;53.50
28297;DHT22;62078;49.366;8.172;2023-04-03T08:11:58;19.70;53.60
28297;DHT22;62078;49.366;8.172;2023-04-03T08:14:23;19.70;53.60
28297;DHT22;62078;49.366;8.172;2023-04-03T08:16:49;19.70;53.70
28297;DHT22;62078;49.366;8.172;2023-04-03T08:19:16;19.70;53.60
28297;DHT22;62078;49.366;8.172;2023-04-03T08:21:44;19.70;53.60
28297;DHT22;62078;49.366;8.172;2023-04-03T08:24:09;19.70;53.60
28297;DHT22;62078;49.366;8.172;2023-04-03T08:26:35;19.70;53.70
28297;DHT22;62078;49.366;8.172;2023-04-03T08:29:01;19.70;53.60
28297;DHT22;62078;49.366;8.172;2023-04-03T08:31:27;19.70;53.60
28297;DHT22;62078;49.366;8.172;2023-04-03T08:33:54;19.70;53.60
28297;DHT22;62078;49.366;8.172;2023-04-03T08:36:25;19.70;53.60
28297;DHT22;62078;49.366;8.172;2023-04-03T08:38:52;19.70;53.60
28297;DHT22;62078;49.366;8.172;2023-04-03T08:41:40;19.70;53.60
28297;DHT22;62078;49.366;8.172;2023-04-03T08:52:41;19.70;53.60
28297;DHT22;62078;49.366;8.172;2023-04-03T08:55:21;19.60;53.70
28297;DHT22;62078;49.366;8.172;2023-04-03T08:57:51;19.60;53.60
28297;DHT22;62078;49.366;8.172;2023-04-03T09:00:24;19.50;53.60
28297;DHT22;62078;49.366;8.172;2023-04-03T09:02:55;19.50;53.60
28297;DHT22;62078;49.366;8.172;2023-04-03T09:08:28;19.50;53.60
28297;DHT22;62078;49.366;8.172;2023-04-03T09:14:33;19.40;53.60
28297;DHT22;62078;49.366;8.172;2023-04-03T09:17:13;19.40;53.60
28297;DHT22;62078;49.366;8.172;2023-04-03T09:20:22;19.40;53.50
28297;DHT22;62078;49.366;8.172;2023-04-03T09:22:41;19.40;53.40
28297;DHT22;62078;49.366;8.172;2023-04-03T09:25:16;19.40;53.40
28297;DHT22;62078;49.366;8.172;2023-04-03T09:27:43;19.40;53.30
28297;DHT22;62078;49.366;8.172;2023-04-03T09:30:16;19.40;53.30
28297;DHT22;62078;49.366;8.172;2023-04-03T09:32:45;19.30;53.30
28297;DHT22;62078;49.366;8.172;2023-04-03T09:35:32;19.30;53.10
28297;DHT22;62078;49.366;8.172;2023-04-03T09:38:14;19.30;53.00
28297;DHT22;62078;49.366;8.172;2023-04-03T09:40:43;19.30;53.00
28297;DHT22;62078;49.366;8.172;2023-04-03T09:43:29;19.30;53.00
28297;DHT22;62078;49.366;8.172;2023-04-03T09:45:56;19.30;53.00
28297;DHT22;62078;49.366;8.172;2023-04-03T09:48:52;19.20;52.90
28297;DHT22;62078;49.366;8.172;2023-04-03T09:51:25;19.20;52.80
28297;DHT22;62078;49.366;8.172;2023-04-03T09:53:53;19.20;52.80
28297;DHT22;62078;49.366;8.172;2023-04-03T09:56:23;19.20;53.40
28297;DHT22;62078;49.366;8.172;2023-04-03T10:01:29;19.10;52.30
28297;DHT22;62078;49.366;8.172;2023-04-03T10:04:08;19.10;52.30
28297;DHT22;62078;49.366;8.172;2023-04-03T10:06:38;19.10;52.50
28297;DHT22;62078;49.366;8.172;2023-04-03T10:09:22;19.10;52.40
28297;DHT22;62078;49.366;8.172;2023-04-03T10:14:34;19.00;52.30
28297;DHT22;62078;49.366;8.172;2023-04-03T10:22:49;18.90;52.20
28297;DHT22;62078;49.366;8.172;2023-04-03T10:25:20;18.90;52.10
28297;DHT22;62078;49.366;8.172;2023-04-03T10:33:29;18.80;52.00
28297;DHT22;62078;49.366;8.172;2023-04-03T10:46:47;18.80;52.30
28297;DHT22;62078;49.366;8.172;2023-04-03T10:49:51;18.70;51.90
28297;DHT22;62078;49.366;8.172;2023-04-03T10:52:41;18.70;52.10
28297;DHT22;62078;49.366;8.172;2023-04-03T10:57:47;18.70;52.00
28297;DHT22;62078;49.366;8.172;2023-04-03T11:00:18;18.70;52.00
28297;DHT22;62078;49.366;8.172;2023-04-03T11:02:55;18.70;52.10
28297;DHT22;62078;49.366;8.172;2023-04-03T11:05:48;18.70;52.10
28297;DHT22;62078;49.366;8.172;2023-04-03T11:11:09;18.60;51.90
28297;DHT22;62078;49.366;8.172;2023-04-03T11:14:31;18.70;52.20
28297;DHT22;62078;49.366;8.172;2023-04-03T11:16:43;18.60;52.10
28297;DHT22;62078;49.366;8.172;2023-04-03T11:21:44;18.60;52.30
28297;DHT22;62078;49.366;8.172;2023-04-03T11:24:23;18.60;52.20
28297;DHT22;62078;49.366;8.172;2023-04-03T11:26:51;18.60;52.20
28297;DHT22;62078;49.366;8.172;2023-04-03T11:29:20;18.60;52.10
28297;DHT22;62078;49.366;8.172;2023-04-03T11:31:56;18.60;52.30
28297;DHT22;62078;49.366;8.172;2023-04-03T11:34:42;18.60;52.40
28297;DHT22;62078;49.366;8.172;2023-04-03T11:37:15;18.60;52.20
28297;DHT22;62078;49.366;8.172;2023-04-03T11:39:58;18.60;52.50
28297;DHT22;62078;49.366;8.172;2023-04-03T12:14:02;18.40;52.70
28297;DHT22;62078;49.366;8.172;2023-04-03T12:30:01;18.40;52.90
28297;DHT22;62078;49.366;8.172;2023-04-03T12:35:37;18.40;52.60
28297;DHT22;62078;49.366;8.172;2023-04-03T12:38:29;18.40;52.70
28297;DHT22;62078;49.366;8.172;2023-04-03T12:41:17;18.40;52.60
28297;DHT22;62078;49.366;8.172;2023-04-03T12:44:25;18.40;52.50
28297;DHT22;62078;49.366;8.172;2023-04-03T12:47:00;18.30;52.20
28297;DHT22;62078;49.366;8.172;2023-04-03T12:49:41;18.30;52.20
28297;DHT22;62078;49.366;8.172;2023-04-03T12:52:29;18.30;52.20
28297;DHT22;62078;49.366;8.172;2023-04-03T12:54:56;18.40;52.20
28297;DHT22;62078;49.366;8.172;2023-04-03T12:57:27;18.30;52.10
28297;DHT22;62078;49.366;8.172;2023-04-03T12:59:56;18.30;51.80
28297;DHT22;62078;49.366;8.172;2023-04-03T13:02:27;18.30;51.70
28297;DHT22;62078;49.366;8.172;2023-04-03T13:04:58;18.30;51.70
28297;DHT22;62078;49.366;8.172;2023-04-03T13:07:28;18.30;51.50
28297;DHT22;62078;49.366;8.172;2023-04-03T13:09:58;18.30;51.40
28297;DHT22;62078;49.366;8.172;2023-04-03T13:12:25;18.30;51.30
28297;DHT22;62078;49.366;8.172;2023-04-03T13:14:57;18.30;51.10
28297;DHT22;62078;49.366;8.172;2023-04-03T13:17:24;18.20;51.10
28297;DHT22;62078;49.366;8.172;2023-04-03T13:19:51;18.20;50.90
28297;DHT22;62078;49.366;8.172;2023-04-03T13:22:27;18.20;51.00
28297;DHT22;62078;49.366;8.172;2023-04-03T13:24:58;18.20;50.90
28297;DHT22;62078;49.366;8.172;2023-04-03T13:27:25;18.20;51.00
28297;DHT22;62078;49.366;8.172;2023-04-03T13:29:53;18.20;51.00
28297;DHT22;62078;49.366;8.172;2023-04-03T13:32:23;18.20;51.10
28297;DHT22;62078;49.366;8.172;2023-04-03T13:34:50;18.20;51.00
28297;DHT22;62078;49.366;8.172;2023-04-03T13:42:36;18.20;50.70
28297;DHT22;62078;49.366;8.172;2023-04-03T13:45:19;18.10;50.60
28297;DHT22;62078;49.366;8.172;2023-04-03T13:47:47;18.10;50.50
28297;DHT22;62078;49.366;8.172;2023-04-03T13:50:22;18.10;50.50
28297;DHT22;62078;49.366;8.172;2023-04-03T13:53:02;18.10;51.20
28297;DHT22;62078;49.366;8.172;2023-04-03T13:55:34;18.10;50.50
28297;DHT22;62078;49.366;8.172;2023-04-03T13:58:19;18.10;50.60
28297;DHT22;62078;49.366;8.172;2023-04-03T14:03:32;18.10;50.80
28297;DHT22;62078;49.366;8.172;2023-04-03T14:05:59;18.00;50.70
28297;DHT22;62078;49.366;8.172;2023-04-03T14:08:25;18.00;50.90
28297;DHT22;62078;49.366;8.172;2023-04-03T14:10:53;18.00;50.90
28297;DHT22;62078;49.366;8.172;2023-04-03T14:13:19;18.00;50.80
28297;DHT22;62078;49.366;8.172;2023-04-03T14:15:47;18.00;50.90
28297;DHT22;62078;49.366;8.172;2023-04-03T14:18:16;18.00;51.50
28297;DHT22;62078;49.366;8.172;2023-04-03T14:20:42;18.00;51.10
28297;DHT22;62078;49.366;8.172;2023-04-03T14:23:08;18.00;51.10
28297;DHT22;62078;49.366;8.172;2023-04-03T14:25:35;18.00;51.30
